sensor_id;sensor_type;location;lat;lon;timestamp;temperature;humidity
35363;DHT22;21463;47.480;8.214;2024-02-14T00:00:56;20.80;34.50
35363;DHT22;21463;47.480;8.214;2024-02-14T00:02:02;20.80;34.50
35363;DHT22;21463;47.480;8.214;2024-02-14T00:03:10;20.80;34.50
35363;DHT22;21463;47.480;8.214;2024-02-14T00:04:15;20.80;34.50
35363;DHT22;21463;47.480;8.214;2024-02-14T00:05:30;20.80;34.50
35363;DHT22;21463;47.480;8.214;2024-02-14T00:06:36;20.80;34.50
35363;DHT22;21463;47.480;8.214;2024-02-14T00:07:47;20.80;34.50
35363;DHT22;21463;47.480;8.214;2024-02-14T00:08:56;20.80;34.50
35363;DHT22;21463;47.480;8.214;2024-02-14T00:10:09;20.80;34.50
35363;DHT22;21463;47.480;8.214;2024-02-14T00:11:17;20.80;34.50
35363;DHT22;21463;47.480;8.214;2024-02-14T00:12:23;20.80;34.50
35363;DHT22;21463;47.480;8.214;2024-02-14T00:13:28;20.80;34.50
35363;DHT22;21463;47.480;8.214;2024-02-14T00:14:32;20.80;34.50
35363;DHT22;21463;47.480;8.214;2024-02-14T00:15:38;20.80;34.50
35363;DHT22;21463;47.480;8.214;2024-02-14T00:16:46;20.80;34.50
35363;DHT22;21463;47.480;8.214;2024-02-14T00:17:53;20.80;34.50
35363;DHT22;21463;47.480;8.214;2024-02-14T00:18:59;20.80;34.50
35363;DHT22;21463;47.480;8.214;2024-02-14T00:20:10;20.80;34.50
35363;DHT22;21463;47.480;8.214;2024-02-14T00:21:25;20.80;34.50
35363;DHT22;21463;47.480;8.214;2024-02-14T00:22:36;20.80;34.50
35363;DHT22;21463;47.480;8.214;2024-02-14T00:23:42;20.80;34.50
35363;DHT22;21463;47.480;8.214;2024-02-14T00:24:48;20.80;34.50
35363;DHT22;21463;47.480;8.214;2024-02-14T00:26:04;20.80;34.50
35363;DHT22;21463;47.480;8.214;2024-02-14T00:27:11;20.80;34.50
35363;DHT22;21463;47.480;8.214;2024-02-14T00:28:18;20.80;34.50
35363;DHT22;21463;47.480;8.214;2024-02-14T00:29:45;20.80;34.50
35363;DHT22;21463;47.480;8.214;2024-02-14T00:30:53;20.80;34.60
35363;DHT22;21463;47.480;8.214;2024-02-14T00:32:18;20.80;34.50
35363;DHT22;21463;47.480;8.214;2024-02-14T00:33:28;20.80;34.60
35363;DHT22;21463;47.480;8.214;2024-02-14T00:34:34;20.80;34.50
35363;DHT22;21463;47.480;8.214;2024-02-14T00:35:39;20.80;34.60
35363;DHT22;21463;47.480;8.214;2024-02-14T00:36:51;20.80;34.50
35363;DHT22;21463;47.480;8.214;2024-02-14T00:37:59;20.90;34.60
35363;DHT22;21463;47.480;8.214;2024-02-14T00:39:10;20.80;34.60
35363;DHT22;21463;47.480;8.214;2024-02-14T00:40:18;20.80;34.60
35363;DHT22;21463;47.480;8.214;2024-02-14T00:41:32;20.80;34.50
35363;DHT22;21463;47.480;8.214;2024-02-14T00:42:42;20.80;34.60
35363;DHT22;21463;47.480;8.214;2024-02-14T00:43:51;20.80;34.50
35363;DHT22;21463;47.480;8.214;2024-02-14T00:45:00;20.80;34.60
35363;DHT22;21463;47.480;8.214;2024-02-14T00:46:08;20.80;34.60
35363;DHT22;21463;47.480;8.214;2024-02-14T00:47:17;20.80;34.60
35363;DHT22;21463;47.480;8.214;2024-02-14T00:48:24;20.80;34.60
35363;DHT22;21463;47.480;8.214;2024-02-14T00:49:46;20.80;34.60
35363;DHT22;21463;47.480;8.214;2024-02-14T00:50:52;20.70;34.50
35363;DHT22;21463;47.480;8.214;2024-02-14T00:52:01;20.80;34.60
35363;DHT22;21463;47.480;8.214;2024-02-14T00:53:09;20.80;34.60
35363;DHT22;21463;47.480;8.214;2024-02-14T00:54:17;20.80;34.60
35363;DHT22;21463;47.480;8.214;2024-02-14T00:55:24;20.80;34.60
35363;DHT22;21463;47.480;8.214;2024-02-14T00:56:28;20.80;34.60
35363;DHT22;21463;47.480;8.214;2024-02-14T00:57:37;20.80;34.60
35363;DHT22;21463;47.480;8.214;2024-02-14T00:58:56;20.80;34.60
35363;DHT22;21463;47.480;8.214;2024-02-14T01:00:06;20.80;34.60
35363;DHT22;21463;47.480;8.214;2024-02-14T01:01:21;20.80;34.60
35363;DHT22;21463;47.480;8.214;2024-02-14T01:02:28;20.80;34.60
35363;DHT22;21463;47.480;8.214;2024-02-14T01:03:38;20.80;34.60
35363;DHT22;21463;47.480;8.214;2024-02-14T01:04:46;20.80;34.60
35363;DHT22;21463;47.480;8.214;2024-02-14T01:05:58;20.70;34.60
35363;DHT22;21463;47.480;8.214;2024-02-14T01:07:08;20.80;34.60
35363;DHT22;21463;47.480;8.214;2024-02-14T01:08:17;20.80;34.60
35363;DHT22;21463;47.480;8.214;2024-02-14T01:09:29;20.80;34.60
35363;DHT22;21463;47.480;8.214;2024-02-14T01:10:36;20.80;34.60
35363;DHT22;21463;47.480;8.214;2024-02-14T01:12:02;20.80;34.70
35363;DHT22;21463;47.480;8.214;2024-02-14T01:13:20;20.80;34.70
35363;DHT22;21463;47.480;8.214;2024-02-14T01:14:27;20.80;34.60
35363;DHT22;21463;47.480;8.214;2024-02-14T01:15:35;20.80;34.60
35363;DHT22;21463;47.480;8.214;2024-02-14T01:16:43;20.80;34.60
35363;DHT22;21463;47.480;8.214;2024-02-14T01:18:06;20.80;34.60
35363;DHT22;21463;47.480;8.214;2024-02-14T01:19:11;20.80;34.70
35363;DHT22;21463;47.480;8.214;2024-02-14T01:20:35;20.80;34.70
35363;DHT22;21463;47.480;8.214;2024-02-14T01:21:48;20.80;34.70
35363;DHT22;21463;47.480;8.214;2024-02-14T01:22:55;20.80;34.70
35363;DHT22;21463;47.480;8.214;2024-02-14T01:24:01;20.80;34.70
35363;DHT22;21463;47.480;8.214;2024-02-14T01:25:09;20.80;34.70
35363;DHT22;21463;47.480;8.214;2024-02-14T01:26:15;20.80;34.70
35363;DHT22;21463;47.480;8.214;2024-02-14T01:27:23;20.80;34.70
35363;DHT22;21463;47.480;8.214;2024-02-14T01:28:46;20.80;34.70
35363;DHT22;21463;47.480;8.214;2024-02-14T01:29:57;20.80;34.70
35363;DHT22;21463;47.480;8.214;2024-02-14T01:31:24;20.80;34.70
35363;DHT22;21463;47.480;8.214;2024-02-14T01:32:30;20.80;34.70
35363;DHT22;21463;47.480;8.214;2024-02-14T01:33:37;20.80;34.70
35363;DHT22;21463;47.480;8.214;2024-02-14T01:34:44;20.80;34.70
35363;DHT22;21463;47.480;8.214;2024-02-14T01:35:50;20.80;34.80
35363;DHT22;21463;47.480;8.214;2024-02-14T01:36:59;20.80;34.80
35363;DHT22;21463;47.480;8.214;2024-02-14T01:38:07;20.80;34.70
35363;DHT22;21463;47.480;8.214;2024-02-14T01:39:12;20.80;34.70
35363;DHT22;21463;47.480;8.214;2024-02-14T01:40:32;20.80;34.70
35363;DHT22;21463;47.480;8.214;2024-02-14T01:41:49;20.80;34.70
35363;DHT22;21463;47.480;8.214;2024-02-14T01:42:59;20.80;34.70
35363;DHT22;21463;47.480;8.214;2024-02-14T01:44:07;20.80;34.70
35363;DHT22;21463;47.480;8.214;2024-02-14T01:45:18;20.80;34.80
35363;DHT22;21463;47.480;8.214;2024-02-14T01:46:37;20.80;34.80
35363;DHT22;21463;47.480;8.214;2024-02-14T01:47:48;20.80;34.80
35363;DHT22;21463;47.480;8.214;2024-02-14T01:49:09;20.80;34.80
35363;DHT22;21463;47.480;8.214;2024-02-14T01:50:16;20.80;34.80
35363;DHT22;21463;47.480;8.214;2024-02-14T01:51:24;20.80;34.80
35363;DHT22;21463;47.480;8.214;2024-02-14T01:52:32;20.80;34.80
35363;DHT22;21463;47.480;8.214;2024-02-14T01:53:39;20.80;34.80
35363;DHT22;21463;47.480;8.214;2024-02-14T01:54:51;20.80;34.80
35363;DHT22;21463;47.480;8.214;2024-02-14T01:55:59;20.80;34.80
35363;DHT22;21463;47.480;8.214;2024-02-14T01:57:05;20.80;34.80
35363;DHT22;21463;47.480;8.214;2024-02-14T01:58:11;20.80;34.80
35363;DHT22;21463;47.480;8.214;2024-02-14T01:59:16;20.80;34.80
35363;DHT22;21463;47.480;8.214;2024-02-14T02:00:22;20.80;34.80
35363;DHT22;21463;47.480;8.214;2024-02-14T02:01:29;20.80;34.80
35363;DHT22;21463;47.480;8.214;2024-02-14T02:02:39;20.80;34.80
35363;DHT22;21463;47.480;8.214;2024-02-14T02:03:49;20.80;34.80
35363;DHT22;21463;47.480;8.214;2024-02-14T02:04:54;20.80;34.80
35363;DHT22;21463;47.480;8.214;2024-02-14T02:06:12;20.80;34.80
35363;DHT22;21463;47.480;8.214;2024-02-14T02:07:20;20.80;34.80
35363;DHT22;21463;47.480;8.214;2024-02-14T02:08:25;20.80;34.80
35363;DHT22;21463;47.480;8.214;2024-02-14T02:09:32;20.80;34.80
35363;DHT22;21463;47.480;8.214;2024-02-14T02:10:38;20.80;34.80
35363;DHT22;21463;47.480;8.214;2024-02-14T02:12:06;20.80;34.80
35363;DHT22;21463;47.480;8.214;2024-02-14T02:13:36;20.80;34.80
35363;DHT22;21463;47.480;8.214;2024-02-14T02:15:08;20.80;34.80
35363;DHT22;21463;47.480;8.214;2024-02-14T02:16:37;20.80;34.80
35363;DHT22;21463;47.480;8.214;2024-02-14T02:18:05;20.80;34.90
35363;DHT22;21463;47.480;8.214;2024-02-14T02:19:32;20.80;34.80
35363;DHT22;21463;47.480;8.214;2024-02-14T02:20:58;20.80;34.80
35363;DHT22;21463;47.480;8.214;2024-02-14T02:22:09;20.80;34.80
35363;DHT22;21463;47.480;8.214;2024-02-14T02:23:38;20.80;34.80
35363;DHT22;21463;47.480;8.214;2024-02-14T02:24:49;20.80;34.80
35363;DHT22;21463;47.480;8.214;2024-02-14T02:25:57;20.80;34.80
35363;DHT22;21463;47.480;8.214;2024-02-14T02:27:24;20.80;34.90
35363;DHT22;21463;47.480;8.214;2024-02-14T02:28:49;20.70;34.80
35363;DHT22;21463;47.480;8.214;2024-02-14T02:29:58;20.80;34.80
35363;DHT22;21463;47.480;8.214;2024-02-14T02:31:05;20.80;34.90
35363;DHT22;21463;47.480;8.214;2024-02-14T02:32:16;20.80;34.90
35363;DHT22;21463;47.480;8.214;2024-02-14T02:33:22;20.80;34.90
35363;DHT22;21463;47.480;8.214;2024-02-14T02:34:30;20.80;34.90
35363;DHT22;21463;47.480;8.214;2024-02-14T02:35:34;20.80;34.90
35363;DHT22;21463;47.480;8.214;2024-02-14T02:37:13;20.80;34.90
35363;DHT22;21463;47.480;8.214;2024-02-14T02:38:38;20.80;34.90
35363;DHT22;21463;47.480;8.214;2024-02-14T02:40:09;20.80;34.90
35363;DHT22;21463;47.480;8.214;2024-02-14T02:41:36;20.80;34.90
35363;DHT22;21463;47.480;8.214;2024-02-14T02:43:05;20.80;34.90
35363;DHT22;21463;47.480;8.214;2024-02-14T02:44:38;20.80;34.90
35363;DHT22;21463;47.480;8.214;2024-02-14T02:46:01;20.80;34.90
35363;DHT22;21463;47.480;8.214;2024-02-14T02:47:33;20.80;34.90
35363;DHT22;21463;47.480;8.214;2024-02-14T02:48:58;20.80;34.90
35363;DHT22;21463;47.480;8.214;2024-02-14T02:50:03;20.80;34.90
35363;DHT22;21463;47.480;8.214;2024-02-14T02:51:28;20.80;34.90
35363;DHT22;21463;47.480;8.214;2024-02-14T02:52:58;20.80;34.90
35363;DHT22;21463;47.480;8.214;2024-02-14T02:54:25;20.80;34.90
35363;DHT22;21463;47.480;8.214;2024-02-14T02:55:51;20.80;34.90
35363;DHT22;21463;47.480;8.214;2024-02-14T02:56:58;20.80;34.90
35363;DHT22;21463;47.480;8.214;2024-02-14T02:58:05;20.90;35.00
35363;DHT22;21463;47.480;8.214;2024-02-14T02:59:14;20.80;34.90
35363;DHT22;21463;47.480;8.214;2024-02-14T03:00:26;20.80;34.90
35363;DHT22;21463;47.480;8.214;2024-02-14T03:01:47;20.80;34.90
35363;DHT22;21463;47.480;8.214;2024-02-14T03:03:14;20.80;34.90
35363;DHT22;21463;47.480;8.214;2024-02-14T03:04:39;20.80;34.90
35363;DHT22;21463;47.480;8.214;2024-02-14T03:06:14;20.80;35.00
35363;DHT22;21463;47.480;8.214;2024-02-14T03:07:36;20.80;34.90
35363;DHT22;21463;47.480;8.214;2024-02-14T03:09:00;20.80;34.90
35363;DHT22;21463;47.480;8.214;2024-02-14T03:10:23;20.80;35.00
35363;DHT22;21463;47.480;8.214;2024-02-14T03:11:49;20.80;35.00
35363;DHT22;21463;47.480;8.214;2024-02-14T03:13:15;20.80;34.90
35363;DHT22;21463;47.480;8.214;2024-02-14T03:14:44;20.80;35.00
35363;DHT22;21463;47.480;8.214;2024-02-14T03:16:10;20.80;35.00
35363;DHT22;21463;47.480;8.214;2024-02-14T03:17:17;20.80;35.00
35363;DHT22;21463;47.480;8.214;2024-02-14T03:18:21;20.80;34.90
35363;DHT22;21463;47.480;8.214;2024-02-14T03:19:28;20.80;35.50
35363;DHT22;21463;47.480;8.214;2024-02-14T03:20:43;20.80;35.00
35363;DHT22;21463;47.480;8.214;2024-02-14T03:21:48;20.80;35.00
35363;DHT22;21463;47.480;8.214;2024-02-14T03:22:57;20.70;34.90
35363;DHT22;21463;47.480;8.214;2024-02-14T03:24:04;20.80;35.00
35363;DHT22;21463;47.480;8.214;2024-02-14T03:25:13;20.80;35.00
35363;DHT22;21463;47.480;8.214;2024-02-14T03:26:37;20.80;35.00
35363;DHT22;21463;47.480;8.214;2024-02-14T03:27:43;20.80;35.00
35363;DHT22;21463;47.480;8.214;2024-02-14T03:28:54;20.80;35.00
35363;DHT22;21463;47.480;8.214;2024-02-14T03:30:01;20.80;35.00
35363;DHT22;21463;47.480;8.214;2024-02-14T03:31:09;20.70;34.90
35363;DHT22;21463;47.480;8.214;2024-02-14T03:32:19;20.80;35.00
35363;DHT22;21463;47.480;8.214;2024-02-14T03:33:34;20.80;35.00
35363;DHT22;21463;47.480;8.214;2024-02-14T03:34:43;20.70;34.90
35363;DHT22;21463;47.480;8.214;2024-02-14T03:35:48;20.80;35.00
35363;DHT22;21463;47.480;8.214;2024-02-14T03:36:57;20.80;35.00
35363;DHT22;21463;47.480;8.214;2024-02-14T03:38:09;20.80;35.00
35363;DHT22;21463;47.480;8.214;2024-02-14T03:39:14;20.80;35.00
35363;DHT22;21463;47.480;8.214;2024-02-14T03:40:31;20.80;35.00
35363;DHT22;21463;47.480;8.214;2024-02-14T03:41:36;20.80;35.00
35363;DHT22;21463;47.480;8.214;2024-02-14T03:42:46;20.80;35.00
35363;DHT22;21463;47.480;8.214;2024-02-14T03:43:51;20.70;34.90
35363;DHT22;21463;47.480;8.214;2024-02-14T03:44:58;20.80;35.00
35363;DHT22;21463;47.480;8.214;2024-02-14T03:46:07;20.80;35.00
35363;DHT22;21463;47.480;8.214;2024-02-14T03:47:13;20.80;35.00
35363;DHT22;21463;47.480;8.214;2024-02-14T03:48:35;20.80;35.00
35363;DHT22;21463;47.480;8.214;2024-02-14T03:49:43;20.80;35.00
35363;DHT22;21463;47.480;8.214;2024-02-14T03:50:53;20.80;35.00
35363;DHT22;21463;47.480;8.214;2024-02-14T03:52:03;20.80;35.00
35363;DHT22;21463;47.480;8.214;2024-02-14T03:53:14;20.80;35.00
35363;DHT22;21463;47.480;8.214;2024-02-14T03:54:23;20.80;35.00
35363;DHT22;21463;47.480;8.214;2024-02-14T03:55:29;20.70;35.00
35363;DHT22;21463;47.480;8.214;2024-02-14T03:56:38;20.80;35.00
35363;DHT22;21463;47.480;8.214;2024-02-14T03:57:44;20.80;35.10
35363;DHT22;21463;47.480;8.214;2024-02-14T03:58:53;20.80;35.00
35363;DHT22;21463;47.480;8.214;2024-02-14T03:59:59;20.80;35.00
35363;DHT22;21463;47.480;8.214;2024-02-14T04:01:15;20.80;35.00
35363;DHT22;21463;47.480;8.214;2024-02-14T04:02:19;20.80;35.00
35363;DHT22;21463;47.480;8.214;2024-02-14T04:03:26;20.80;35.00
35363;DHT22;21463;47.480;8.214;2024-02-14T04:04:31;20.80;35.00
35363;DHT22;21463;47.480;8.214;2024-02-14T04:05:44;20.80;35.10
35363;DHT22;21463;47.480;8.214;2024-02-14T04:06:54;20.80;35.10
35363;DHT22;21463;47.480;8.214;2024-02-14T04:08:05;20.80;35.00
35363;DHT22;21463;47.480;8.214;2024-02-14T04:09:13;20.80;35.00
35363;DHT22;21463;47.480;8.214;2024-02-14T04:10:32;20.70;35.00
35363;DHT22;21463;47.480;8.214;2024-02-14T04:11:37;20.80;35.10
35363;DHT22;21463;47.480;8.214;2024-02-14T04:12:41;20.80;35.00
35363;DHT22;21463;47.480;8.214;2024-02-14T04:13:48;20.80;35.00
35363;DHT22;21463;47.480;8.214;2024-02-14T04:14:58;20.70;35.00
35363;DHT22;21463;47.480;8.214;2024-02-14T04:16:08;20.80;35.10
35363;DHT22;21463;47.480;8.214;2024-02-14T04:17:25;20.80;35.10
35363;DHT22;21463;47.480;8.214;2024-02-14T04:18:45;20.70;35.00
35363;DHT22;21463;47.480;8.214;2024-02-14T04:19:52;20.80;35.10
35363;DHT22;21463;47.480;8.214;2024-02-14T04:20:59;20.80;35.10
35363;DHT22;21463;47.480;8.214;2024-02-14T04:22:18;20.80;35.10
35363;DHT22;21463;47.480;8.214;2024-02-14T04:23:29;20.70;35.00
35363;DHT22;21463;47.480;8.214;2024-02-14T04:24:39;20.70;35.00
35363;DHT22;21463;47.480;8.214;2024-02-14T04:25:44;20.80;35.10
35363;DHT22;21463;47.480;8.214;2024-02-14T04:26:49;20.70;35.60
35363;DHT22;21463;47.480;8.214;2024-02-14T04:27:59;20.80;35.10
35363;DHT22;21463;47.480;8.214;2024-02-14T04:29:14;20.80;35.00
35363;DHT22;21463;47.480;8.214;2024-02-14T04:30:22;20.80;35.00
35363;DHT22;21463;47.480;8.214;2024-02-14T04:31:43;20.80;35.70
35363;DHT22;21463;47.480;8.214;2024-02-14T04:32:51;20.80;35.10
35363;DHT22;21463;47.480;8.214;2024-02-14T04:33:58;20.80;35.10
35363;DHT22;21463;47.480;8.214;2024-02-14T04:35:05;20.80;35.10
35363;DHT22;21463;47.480;8.214;2024-02-14T04:36:19;20.80;35.10
35363;DHT22;21463;47.480;8.214;2024-02-14T04:37:33;20.80;35.10
35363;DHT22;21463;47.480;8.214;2024-02-14T04:38:46;20.80;35.10
35363;DHT22;21463;47.480;8.214;2024-02-14T04:39:51;20.80;35.10
35363;DHT22;21463;47.480;8.214;2024-02-14T04:40:58;20.80;35.10
35363;DHT22;21463;47.480;8.214;2024-02-14T04:42:18;20.80;35.70
35363;DHT22;21463;47.480;8.214;2024-02-14T04:43:24;20.80;35.10
35363;DHT22;21463;47.480;8.214;2024-02-14T04:44:32;20.70;35.00
35363;DHT22;21463;47.480;8.214;2024-02-14T04:45:37;20.80;35.10
35363;DHT22;21463;47.480;8.214;2024-02-14T04:46:54;20.80;35.10
35363;DHT22;21463;47.480;8.214;2024-02-14T04:48:03;20.80;35.10
35363;DHT22;21463;47.480;8.214;2024-02-14T04:49:11;20.80;35.10
35363;DHT22;21463;47.480;8.214;2024-02-14T04:50:29;20.80;35.10
35363;DHT22;21463;47.480;8.214;2024-02-14T04:51:36;20.70;35.10
35363;DHT22;21463;47.480;8.214;2024-02-14T04:52:43;20.80;35.10
35363;DHT22;21463;47.480;8.214;2024-02-14T04:53:49;20.80;35.10
35363;DHT22;21463;47.480;8.214;2024-02-14T04:54:54;20.80;35.10
35363;DHT22;21463;47.480;8.214;2024-02-14T04:56:00;20.80;35.10
35363;DHT22;21463;47.480;8.214;2024-02-14T04:57:15;20.80;35.10
35363;DHT22;21463;47.480;8.214;2024-02-14T04:58:25;20.80;35.10
35363;DHT22;21463;47.480;8.214;2024-02-14T04:59:33;20.80;35.10
35363;DHT22;21463;47.480;8.214;2024-02-14T05:00:40;20.80;35.10
35363;DHT22;21463;47.480;8.214;2024-02-14T05:01:48;20.80;35.10
35363;DHT22;21463;47.480;8.214;2024-02-14T05:02:52;20.80;35.10
35363;DHT22;21463;47.480;8.214;2024-02-14T05:03:58;20.80;35.10
35363;DHT22;21463;47.480;8.214;2024-02-14T05:05:02;20.70;35.00
35363;DHT22;21463;47.480;8.214;2024-02-14T05:06:12;20.80;35.10
35363;DHT22;21463;47.480;8.214;2024-02-14T05:07:20;20.80;35.10
35363;DHT22;21463;47.480;8.214;2024-02-14T05:08:28;20.70;35.00
35363;DHT22;21463;47.480;8.214;2024-02-14T05:09:35;20.80;35.10
35363;DHT22;21463;47.480;8.214;2024-02-14T05:10:44;20.80;35.10
35363;DHT22;21463;47.480;8.214;2024-02-14T05:12:09;20.80;35.10
35363;DHT22;21463;47.480;8.214;2024-02-14T05:13:22;20.80;35.20
35363;DHT22;21463;47.480;8.214;2024-02-14T05:14:48;20.70;35.10
35363;DHT22;21463;47.480;8.214;2024-02-14T05:16:09;20.70;35.20
35363;DHT22;21463;47.480;8.214;2024-02-14T05:17:16;20.70;35.20
35363;DHT22;21463;47.480;8.214;2024-02-14T05:18:27;20.80;35.30
35363;DHT22;21463;47.480;8.214;2024-02-14T05:19:32;20.80;35.30
35363;DHT22;21463;47.480;8.214;2024-02-14T05:21:19;20.80;35.90
35363;DHT22;21463;47.480;8.214;2024-02-14T05:22:28;20.80;35.30
35363;DHT22;21463;47.480;8.214;2024-02-14T05:23:37;20.80;35.30
35363;DHT22;21463;47.480;8.214;2024-02-14T05:24:44;20.80;35.40
35363;DHT22;21463;47.480;8.214;2024-02-14T05:25:52;20.80;35.40
35363;DHT22;21463;47.480;8.214;2024-02-14T05:26:58;20.70;35.30
35363;DHT22;21463;47.480;8.214;2024-02-14T05:28:03;20.70;35.30
35363;DHT22;21463;47.480;8.214;2024-02-14T05:29:10;20.80;35.40
35363;DHT22;21463;47.480;8.214;2024-02-14T05:30:15;20.80;35.40
35363;DHT22;21463;47.480;8.214;2024-02-14T05:31:45;20.80;35.40
35363;DHT22;21463;47.480;8.214;2024-02-14T05:32:54;20.80;35.50
35363;DHT22;21463;47.480;8.214;2024-02-14T05:33:59;20.80;35.50
35363;DHT22;21463;47.480;8.214;2024-02-14T05:35:10;20.80;35.50
35363;DHT22;21463;47.480;8.214;2024-02-14T05:36:31;20.80;35.60
35363;DHT22;21463;47.480;8.214;2024-02-14T05:37:39;20.70;35.50
35363;DHT22;21463;47.480;8.214;2024-02-14T05:38:45;20.80;35.60
35363;DHT22;21463;47.480;8.214;2024-02-14T05:39:52;20.80;36.20
35363;DHT22;21463;47.480;8.214;2024-02-14T05:40:59;20.80;35.60
35363;DHT22;21463;47.480;8.214;2024-02-14T05:42:08;20.80;35.70
35363;DHT22;21463;47.480;8.214;2024-02-14T05:43:14;20.80;35.60
35363;DHT22;21463;47.480;8.214;2024-02-14T05:44:24;20.80;35.70
35363;DHT22;21463;47.480;8.214;2024-02-14T05:45:31;20.80;35.70
35363;DHT22;21463;47.480;8.214;2024-02-14T05:46:36;20.80;35.70
35363;DHT22;21463;47.480;8.214;2024-02-14T05:47:43;20.80;35.70
35363;DHT22;21463;47.480;8.214;2024-02-14T05:48:50;20.80;35.70
35363;DHT22;21463;47.480;8.214;2024-02-14T05:50:15;20.80;35.80
35363;DHT22;21463;47.480;8.214;2024-02-14T05:51:21;20.80;35.80
35363;DHT22;21463;47.480;8.214;2024-02-14T05:52:28;20.80;35.80
35363;DHT22;21463;47.480;8.214;2024-02-14T05:53:36;20.80;35.80
35363;DHT22;21463;47.480;8.214;2024-02-14T05:54:47;20.80;35.90
35363;DHT22;21463;47.480;8.214;2024-02-14T05:55:52;20.80;35.90
35363;DHT22;21463;47.480;8.214;2024-02-14T05:57:19;20.80;35.90
35363;DHT22;21463;47.480;8.214;2024-02-14T05:58:42;20.80;35.90
35363;DHT22;21463;47.480;8.214;2024-02-14T05:59:48;20.80;35.90
35363;DHT22;21463;47.480;8.214;2024-02-14T06:01:03;20.80;36.00
35363;DHT22;21463;47.480;8.214;2024-02-14T06:02:11;20.80;36.00
35363;DHT22;21463;47.480;8.214;2024-02-14T06:03:22;20.80;36.00
35363;DHT22;21463;47.480;8.214;2024-02-14T06:04:31;20.70;36.00
35363;DHT22;21463;47.480;8.214;2024-02-14T06:05:46;20.70;36.00
35363;DHT22;21463;47.480;8.214;2024-02-14T06:06:50;20.80;36.10
35363;DHT22;21463;47.480;8.214;2024-02-14T06:08:01;20.80;36.10
35363;DHT22;21463;47.480;8.214;2024-02-14T06:09:09;20.80;36.10
35363;DHT22;21463;47.480;8.214;2024-02-14T06:10:15;20.80;36.20
35363;DHT22;21463;47.480;8.214;2024-02-14T06:11:22;20.80;36.20
35363;DHT22;21463;47.480;8.214;2024-02-14T06:12:30;20.80;36.20
35363;DHT22;21463;47.480;8.214;2024-02-14T06:13:41;20.80;36.20
35363;DHT22;21463;47.480;8.214;2024-02-14T06:14:51;20.80;36.20
35363;DHT22;21463;47.480;8.214;2024-02-14T06:16:03;20.80;36.20
35363;DHT22;21463;47.480;8.214;2024-02-14T06:17:14;20.80;36.20
35363;DHT22;21463;47.480;8.214;2024-02-14T06:18:39;20.80;36.30
35363;DHT22;21463;47.480;8.214;2024-02-14T06:19:49;20.80;36.30
35363;DHT22;21463;47.480;8.214;2024-02-14T06:20:53;20.80;36.30
35363;DHT22;21463;47.480;8.214;2024-02-14T06:22:04;20.80;36.30
35363;DHT22;21463;47.480;8.214;2024-02-14T06:23:13;20.80;36.30
35363;DHT22;21463;47.480;8.214;2024-02-14T06:24:19;20.80;36.30
35363;DHT22;21463;47.480;8.214;2024-02-14T06:25:24;20.80;36.40
35363;DHT22;21463;47.480;8.214;2024-02-14T06:26:35;20.80;36.40
35363;DHT22;21463;47.480;8.214;2024-02-14T06:27:42;20.80;36.40
35363;DHT22;21463;47.480;8.214;2024-02-14T06:28:46;20.80;36.40
35363;DHT22;21463;47.480;8.214;2024-02-14T06:29:55;20.80;36.40
35363;DHT22;21463;47.480;8.214;2024-02-14T06:31:03;20.70;36.40
35363;DHT22;21463;47.480;8.214;2024-02-14T06:32:13;20.80;36.50
35363;DHT22;21463;47.480;8.214;2024-02-14T06:33:22;20.70;36.40
35363;DHT22;21463;47.480;8.214;2024-02-14T06:34:31;20.80;36.50
35363;DHT22;21463;47.480;8.214;2024-02-14T06:35:42;20.80;36.50
35363;DHT22;21463;47.480;8.214;2024-02-14T06:36:47;20.80;36.50
35363;DHT22;21463;47.480;8.214;2024-02-14T06:37:56;20.80;36.60
35363;DHT22;21463;47.480;8.214;2024-02-14T06:39:07;20.80;36.60
35363;DHT22;21463;47.480;8.214;2024-02-14T06:40:28;20.80;36.50
35363;DHT22;21463;47.480;8.214;2024-02-14T06:41:40;20.80;36.60
35363;DHT22;21463;47.480;8.214;2024-02-14T06:43:03;20.80;36.60
35363;DHT22;21463;47.480;8.214;2024-02-14T06:44:12;20.80;36.60
35363;DHT22;21463;47.480;8.214;2024-02-14T06:45:32;20.80;36.60
35363;DHT22;21463;47.480;8.214;2024-02-14T06:46:49;20.80;36.60
35363;DHT22;21463;47.480;8.214;2024-02-14T06:47:55;20.80;36.60
35363;DHT22;21463;47.480;8.214;2024-02-14T06:49:01;20.80;36.60
35363;DHT22;21463;47.480;8.214;2024-02-14T06:50:06;20.80;36.60
35363;DHT22;21463;47.480;8.214;2024-02-14T06:51:14;20.70;36.60
35363;DHT22;21463;47.480;8.214;2024-02-14T06:52:21;20.70;36.60
35363;DHT22;21463;47.480;8.214;2024-02-14T06:53:26;20.80;36.70
35363;DHT22;21463;47.480;8.214;2024-02-14T06:54:42;20.80;36.70
35363;DHT22;21463;47.480;8.214;2024-02-14T06:55:55;20.80;36.70
35363;DHT22;21463;47.480;8.214;2024-02-14T06:57:01;20.80;36.70
35363;DHT22;21463;47.480;8.214;2024-02-14T06:58:09;20.80;36.70
35363;DHT22;21463;47.480;8.214;2024-02-14T06:59:19;20.80;36.70
35363;DHT22;21463;47.480;8.214;2024-02-14T07:00:25;20.80;36.70
35363;DHT22;21463;47.480;8.214;2024-02-14T07:01:35;20.80;36.70
35363;DHT22;21463;47.480;8.214;2024-02-14T07:02:43;20.80;36.70
35363;DHT22;21463;47.480;8.214;2024-02-14T07:03:56;20.80;36.60
35363;DHT22;21463;47.480;8.214;2024-02-14T07:05:03;20.80;36.70
35363;DHT22;21463;47.480;8.214;2024-02-14T07:06:08;20.80;36.60
35363;DHT22;21463;47.480;8.214;2024-02-14T07:07:13;20.70;36.60
35363;DHT22;21463;47.480;8.214;2024-02-14T07:08:20;20.80;36.60
35363;DHT22;21463;47.480;8.214;2024-02-14T07:09:26;20.80;36.60
35363;DHT22;21463;47.480;8.214;2024-02-14T07:10:32;20.80;36.60
35363;DHT22;21463;47.480;8.214;2024-02-14T07:11:41;20.70;36.60
35363;DHT22;21463;47.480;8.214;2024-02-14T07:12:50;20.80;36.60
35363;DHT22;21463;47.480;8.214;2024-02-14T07:13:56;20.80;36.60
35363;DHT22;21463;47.480;8.214;2024-02-14T07:15:00;20.80;36.60
35363;DHT22;21463;47.480;8.214;2024-02-14T07:16:09;20.80;36.60
35363;DHT22;21463;47.480;8.214;2024-02-14T07:17:14;20.80;36.60
35363;DHT22;21463;47.480;8.214;2024-02-14T07:18:20;20.80;36.60
35363;DHT22;21463;47.480;8.214;2024-02-14T07:19:26;20.80;36.60
35363;DHT22;21463;47.480;8.214;2024-02-14T07:20:38;20.80;36.60
35363;DHT22;21463;47.480;8.214;2024-02-14T07:21:50;20.80;36.60
35363;DHT22;21463;47.480;8.214;2024-02-14T07:22:57;20.80;36.60
35363;DHT22;21463;47.480;8.214;2024-02-14T07:24:05;20.80;36.60
35363;DHT22;21463;47.480;8.214;2024-02-14T07:25:11;20.80;36.60
35363;DHT22;21463;47.480;8.214;2024-02-14T07:26:26;20.80;36.50
35363;DHT22;21463;47.480;8.214;2024-02-14T07:27:39;20.80;36.60
35363;DHT22;21463;47.480;8.214;2024-02-14T07:28:48;20.80;36.60
35363;DHT22;21463;47.480;8.214;2024-02-14T07:29:52;20.70;37.10
35363;DHT22;21463;47.480;8.214;2024-02-14T07:30:58;20.70;36.50